| Record Date MM/DD/YYYY | Record Julian Date NNN day of the year | Air Temperature Max (Degrees Fahrenheit F) | Time Max Air Temperature HH:MM:SS This is the time of max air temperature standard time. | Air Temperature Min (Degrees Fahrenheit F) | Time Min Air Temperature HH:MM:SS This is the time of min air temperature standard time. | Air Temperature Observed (Degrees Fahrenheit F) This is an instantaneous reading for air temperature at 7:00:00 standard time. | Relative Humidity Max (Percent) | Time Max Relative Humidity HH:MM:SS This is the time of max relative humidity standard time. | Relative Humidity Min (Percent) | Time Min Relative Humidity HH:MM:SS This is the time of min relative humidity standard time. | Relative Humidity Observed (Percent) This is an instantaneous reading at 7:00:00 standard time. | Precipitation (Inches n.nn) total rain fall that occurred for the day. | Pan Evaporation (Inches n.nn) total evaporation that occured for the day. | Wind Run (Miles) Wind travel for the day. | Wind Speed (Miles Per Hour) Resultant / Average speed for the day. | Wind Direction (Degrees) Resultant Direction for the day | Solar Radiation (Langley's) that occurred for the day. | Soil Temperature Max at 2 inch depth (Degrees Fahrenheit F) that occurred during the day. | Time Max Soil temperature at 2 inches HH:MM:SS This is the time of max 2 inch soil temperature standard time. | Soil Temperature Min at 2 inch depth (Degrees Fahrenheit F) that occurred during the day. | Time Min Soil temperature at 2 inches HH:MM:SS This is the time of min 2 inch soil temperature standard time. | Soil Temperature Observed at 2 inch depth (Degrees Fahrenheit F) This is an instantaneous reading 2 inch soil temperature at 7:00:00 standard time. | Soil Temperature Max at 4 inch depth (Degrees Fahrenheit F) that occurred during the day. | Time Max Soil temperature at 4 inches HH:MM:SS This is the time of max 4 inch soil temperature standard time. | Soil Temperature Min at 4 inch depth (Degrees Fahrenheit F) that occurred during the day. | Time Min Soil temperature at 4 inches HH:MM:SS This is the time of min 4 inch soil temperature standard time. | Soil Temperature Observed at 4 inch depth (Degrees Fahrenheit F) This is an instantaneous reading 4 inch soil temperature at 7:00:00 standard time. | DD50 Degree Days 50 Fahrenheit. | Adjusted DD50 Degree Days 50 Fahrenheit adjusted for latitude. | DD60 Degree Days 60 Fahrenheit. |
|---|---|---|---|---|---|---|---|---|---|---|---|---|---|---|---|---|---|---|---|---|---|---|---|---|---|---|---|---|---|---|
| 04/07/2026 | 97 | 79 | 14:41:02 | 48 | 3:16:04 | 55 | 87 | 3:22:01 | 29 | 15:08:01 | 70 | 0 | 131 | 5.4 | 64 | 583 | 78 | 15:10:00 | 56 | 6:37:01 | 57 | 73 | 17:19:04 | 60 | 7:51:02 | 60 | 13.5 | 14.59 | 3.5 | |
| 04/08/2026 | 98 | 82 | 14:48:04 | 55 | 6:20:03 | 58 | 71 | 6:20:05 | 26 | 16:27:01 | 65 | 0 | 153 | 6.4 | 105 | 594 | 82 | 15:56:03 | 61 | 7:01:00 | 61 | 76 | 17:02:01 | 63 | 8:02:04 | 63 | 18.5 | 19.62 | 8.5 | |
| 04/09/2026 | 99 | 82 | 13:52:04 | 53 | 4:01:03 | 61 | 79 | 4:07:03 | 38 | 14:24:05 | 64 | 0 | 125 | 5.2 | 118 | 609 | 84 | 15:06:03 | 63 | 6:53:04 | 63 | 78 | 16:58:03 | 65 | 7:52:05 | 65 | 17.5 | 18.65 | 7.5 | |
| 04/10/2026 | 100 | 85 | 14:39:00 | 55 | 5:51:00 | 62 | 90 | 5:58:00 | 38 | 15:38:00 | 79 | 0 | 92 | 3.8 | 124 | 641 | 88 | 16:06:03 | 65 | 7:01:02 | 65 | 81 | 17:23:00 | 67 | 7:38:04 | 68 | 20 | 21.19 | 10 | |
| 04/11/2026 | 101 | 88 | 14:41:01 | 58 | 5:46:01 | 68 | 89 | 6:02:05 | 37 | 14:41:03 | 79 | 0 | 81 | 3.4 | 157 | 592 | 89 | 15:39:00 | 68 | 6:41:05 | 69 | 83 | 17:06:01 | 70 | 7:35:00 | 70 | 23 | 24.22 | 13 | |
| 04/12/2026 | 102 | 86 | 14:16:05 | 61 | 4:49:04 | 67 | 85 | 4:53:00 | 40 | 13:48:05 | 76 | 0 | 201 | 8.4 | 177 | 516 | 84 | 14:43:01 | 69 | 6:40:01 | 69 | 80 | 16:22:05 | 71 | 7:58:05 | 71 | 23.5 | 24.75 | 13.5 | |
| 04/13/2026 | 103 | 85 | 15:33:04 | 69 | 5:54:05 | 70 | 83 | 6:17:03 | 54 | 15:33:04 | 82 | 0 | 194 | 8.1 | 174 | 375 | 82 | 16:31:01 | 73 | 6:58:00 | 73 | 79 | 17:32:01 | 73 | 8:22:00 | 73 | 27 | 27.28 | 17 | |
| 04/14/2026 | 104 | 87 | 14:42:00 | 65 | 5:50:02 | 69 | 89 | 5:56:04 | 50 | 16:07:03 | 84 | 0 | 201 | 8.4 | 179 | 518 | 86 | 15:54:04 | 71 | 6:52:02 | 71 | 81 | 17:26:03 | 72 | 7:32:00 | 72 | 26 | 27.31 | 16 | |
| 04/15/2026 | 105 | 88 | 13:50:04 | 66 | 5:58:03 | 69 | 84 | 5:45:03 | 42 | 12:55:01 | 78 | 0 | 212 | 8.8 | 179 | 577 | 87 | 14:58:02 | 72 | 6:51:03 | 72 | 83 | 16:20:05 | 73 | 7:38:02 | 73 | 27 | 27.34 | 17 | |
| 04/16/2026 | 106 | 88 | 13:13:05 | 66 | 3:24:00 | 69 | 89 | 5:58:04 | 51 | 14:40:03 | 87 | 0 | 129 | 5.4 | 182 | 511 | 89 | 14:51:03 | 73 | 6:54:01 | 73 | 83 | 15:48:00 | 74 | 7:26:02 | 74 | 27 | 27.36 | 17 | |
| 04/17/2026 | 107 | 89 | 13:55:01 | 65 | 5:49:00 | 69 | 92 | 5:57:04 | 47 | 13:05:03 | 90 | 0 | 176 | 7.4 | 182 | 546 | 88 | 14:55:03 | 73 | 6:50:01 | 73 | 84 | 16:20:02 | 74 | 8:02:00 | 74 | 27 | 27.39 | 17 | |
| 04/18/2026 | 108 | 79 | 10:22:01 | 51 | 21:54:03 | 70 | 93 | 12:37:01 | 67 | 10:18:05 | 84 | 0.17 | 217 | 9.1 | 244 | 215 | 79 | 15:38:03 | 66 | 23:58:03 | 74 | 79 | 0:00:00 | 70 | 23:59:00 | 75 | 15 | 16.42 | 5 | |
| 04/19/2026 | 109 | 72 | 15:55:03 | 49 | 23:13:01 | 51 | 90 | 23:38:04 | 29 | 13:24:00 | 83 | 0 | 139 | 5.8 | 25 | 612 | 79 | 15:51:00 | 61 | 6:29:00 | 61 | 75 | 17:36:02 | 65 | 8:12:05 | 65 | 10.5 | 11.95 | 0.5 | |
| 04/20/2026 | 110 | 78 | 13:27:04 | 44 | 5:40:00 | 55 | 94 | 6:23:01 | 27 | 15:37:00 | 90 | 0 | 52 | 2.2 | 130 | 626 | 82 | 14:31:04 | 60 | 6:29:03 | 60 | 77 | 17:29:05 | 63 | 7:45:04 | 64 | 11 | 12.48 | 1 | |
| 04/21/2026 | 111 | 81 | 12:47:03 | 46 | 5:17:00 | 55 | 93 | 5:24:03 | 28 | 14:29:03 | 84 | 0 | 86 | 3.6 | 163 | 483 | 79 | 16:05:01 | 62 | 6:32:01 | 62 | 75 | 17:08:03 | 65 | 7:49:03 | 65 | 13.5 | 15.01 | 3.5 | |
| 04/22/2026 | 112 | 83 | 12:55:01 | 63 | 4:51:04 | 65 | 78 | 3:28:02 | 33 | 13:20:01 | 71 | 0 | 110 | 4.6 | 159 | 497 | 83 | 15:36:01 | 68 | 6:49:05 | 68 | 79 | 16:48:05 | 69 | 7:47:04 | 69 | 23 | 24.53 | 13 | |
| 04/23/2026 | 113 | 87 | 15:02:00 | 64 | 5:57:00 | 68 | 89 | 6:11:00 | 39 | 15:08:05 | 83 | 0 | 178 | 7.4 | 164 | 636 | 87 | 15:26:00 | 70 | 6:41:02 | 70 | 82 | 17:03:03 | 71 | 7:24:03 | 71 | 25.5 | 27.06 | 15.5 | |
| 04/24/2026 | 114 | 82 | 13:15:01 | 62 | 23:57:02 | 69 | 97 | 23:59:02 | 64 | 11:44:00 | 85 | 0.94 | 213 | 8.9 | 143 | 294 | 80 | 12:02:00 | 69 | 23:59:04 | 72 | 77 | 13:59:05 | 71 | 0:00:00 | 73 | 22 | 23.58 | 12 | |
| 04/25/2026 | 115 | 81 | 16:53:02 | 62 | 4:23:00 | 63 | 97 | 1:37:01 | 66 | 16:51:05 | 95 | 0.48 | 99 | 4.1 | 108 | 529 | 82 | 14:05:01 | 66 | 6:19:03 | 66 | 78 | 16:25:01 | 68 | 7:16:02 | 68 | 21.5 | 23.11 | 11.5 | |
| 04/26/2026 | 116 | 84 | 14:04:03 | 64 | 6:10:05 | 66 | 94 | 3:45:05 | 62 | 14:15:04 | 85 | 0.21 | 119 | 5.0 | 145 | 590 | 85 | 14:29:03 | 69 | 7:06:02 | 69 | 81 | 15:46:04 | 71 | 7:56:05 | 71 | 24 | 25.64 | 14 | |
| 04/27/2026 | 117 | 85 | 16:07:03 | 71 | 5:38:00 | 73 | 93 | 5:34:05 | 70 | 14:37:02 | 89 | 0 | 207 | 8.6 | 178 | 334 | 80 | 16:25:04 | 72 | 6:16:00 | 73 | 78 | 17:10:01 | 73 | 7:19:03 | 73 | 28 | 27.66 | 18 | |
| 04/28/2026 | 118 | 82 | 12:14:04 | 70 | 5:21:04 | 73 | 94 | 14:07:02 | 74 | 0:01:01 | 90 | 0.47 | 160 | 6.7 | 177 | 201 | 79 | 12:41:04 | 72 | 6:04:00 | 72 | 76 | 13:43:05 | 73 | 7:12:01 | 73 | 26 | 27.69 | 16 | |
| 04/29/2026 | 119 | 75 | 0:57:00 | 64 | 23:59:05 | 72 | 95 | 6:30:05 | 81 | 11:54:03 | 95 | 0.09 | 151 | 6.3 | 349 | 179 | 76 | 12:27:04 | 68 | 23:58:01 | 72 | 74 | 13:08:05 | 70 | 23:57:05 | 72 | 19.5 | 21.21 | 9.5 | |
| 04/30/2026 | 120 | 69 | 14:40:04 | 60 | 23:06:04 | 61 | 93 | 3:55:04 | 64 | 14:42:00 | 82 | 0.27 | 186 | 7.8 | 28 | 305 | 71 | 15:02:05 | 64 | 23:59:04 | 65 | 70 | 0:04:02 | 66 | 23:58:04 | 67 | 14.5 | 16.23 | 4.5 | |
| 05/01/2026 | 121 | 61 | 14:52:04 | 57 | 6:38:02 | 57 | 91 | 19:37:01 | 64 | 22:23:02 | 85 | 0.03 | 114 | 4.7 | 26 | 144 | 65 | 15:33:02 | 61 | 23:58:04 | 62 | 66 | 0:00:00 | 63 | 23:58:04 | 64 | 9 | 10.76 | 0 | |
| 05/02/2026 | 122 | 72 | 14:40:00 | 53 | 23:28:05 | 58 | 94 | 23:43:02 | 38 | 12:35:04 | 67 | 0 | 108 | 4.5 | 6 | 667 | 75 | 15:20:00 | 58 | 6:40:00 | 58 | 72 | 17:10:00 | 61 | 7:34:02 | 61 | 12.5 | 14.28 | 2.5 | |
| 05/03/2026 | 123 | 79 | 16:55:05 | 48 | 4:56:02 | 58 | 96 | 5:47:02 | 38 | 12:25:01 | 86 | 0 | 62 | 2.6 | 204 | 688 | 82 | 15:50:05 | 58 | 6:15:00 | 58 | 77 | 17:40:02 | 61 | 7:15:05 | 61 | 13.5 | 15.3 | 3.5 | |
| 05/04/2026 | 124 | 79 | 13:07:01 | 58 | 5:19:04 | 62 | 82 | 5:13:04 | 44 | 13:01:05 | 74 | 0 | 196 | 8.2 | 200 | 682 | 83 | 15:13:04 | 63 | 6:34:04 | 63 | 78 | 16:55:02 | 65 | 7:34:01 | 65 | 18.5 | 20.32 | 8.5 | |
| 05/05/2026 | 125 | 79 | 15:51:00 | 63 | 3:23:03 | 66 | 85 | 23:36:02 | 67 | 0:11:04 | 76 | 0 | 225 | 9.4 | 181 | 220 | 75 | 17:03:05 | 67 | 5:45:02 | 67 | 73 | 18:53:01 | 68 | 7:25:01 | 68 | 21 | 22.84 | 11 | |
| 05/06/2026 | 126 | 77 | 9:34:00 | 56 | 23:25:01 | 74 | 93 | 10:43:01 | 76 | 9:40:02 | 88 | 0.26 | 220 | 9.2 | 342 | 192 | 74 | 9:53:04 | 63 | 23:59:05 | 72 | 73 | 10:55:02 | 66 | 23:59:05 | 71 | 16.5 | 18.36 | 6.5 | |
| Average | 80.8 | 58.87 | 64.43 | 89.3 | 49.43 | 81.53 | 0.1 | 151.23 | 471.87 | 81.1 | 66.03 | 67 | 77.37 | 68.03 | 68.63 | 19.83 | 21.14 | 9.87 | ||||||||||||
| Total | 2.92 | 595 | 634.13 | 296 |